Morning Calm — C6TM5 — position and weather

sailwx.info

Track history (hours):
 
Tides and Currents Weather Stations Pressure Air Temp Water Temp Dewpoint Dewpoint Depression Visibility Wind Speed Wind Dir Waves Ship Positions

Morning Calm

Last reported at 2018-Jun-15 15:30 UTC. Time now 2018-Jun-19 18:25 UTC.
Position N 37°08' E 004°24'.

Length 199 m; draft 9.1 m.

Type: Cargo ship. MMSI: 311696980.

Date/timePositionNaut miles runAvg speedWind from/ knotsBaromVisibWave heightAir tempDewpointWater temp
2018-Jun-15 15:30N 37°08' E 004°24'918.4
2018-Jun-15 15:00N 37°08' E 004°13'918.4
2018-Jun-15 14:30N 37°07' E 004°01'918.5
2018-Jun-15 14:00N 37°06' E 003°49'918.6
2018-Jun-15 13:30N 37°05' E 003°38'918.1
2018-Jun-15 13:00N 37°03' E 003°27'917.8
2018-Jun-15 12:30N 37°02' E 003°16'917.8
2018-Jun-15 11:58N 36°59' E 003°04'817.9
2018-Jun-15 11:30N 36°58' E 002°54'918.1
2018-Jun-15 11:00N 36°56' E 002°43'918.3
2018-Jun-15 10:30N 36°54' E 002°31'918.6
2018-Jun-15 10:00N 36°53' E 002°20'1018.9
2018-Jun-15 09:30N 36°51' E 002°08'1019.1
2018-Jun-15 08:59N 36°49' E 001°57'1019.7
2018-Jun-15 08:29N 36°47' E 001°44'919.7
2018-Jun-15 08:00N 36°46' E 001°33'1019.5
2018-Jun-15 07:30N 36°45' E 001°21'1119.4
2018-Jun-15 06:58N 36°43' E 001°08'919.2
2018-Jun-15 06:30N 36°42' E 000°57'919.0
2018-Jun-15 06:00N 36°40' E 000°45'918.7
2018-Jun-15 05:30N 36°38' E 000°34'918.6
2018-Jun-15 05:00N 36°37' E 000°22'918.5
2018-Jun-15 04:30N 36°35' E 000°11'918.7
2018-Jun-15 04:00N 36°34' W 000°01'1318.6
2018-Jun-15 03:18N 36°31' W 000°17'1018.2
2018-Jun-15 02:44N 36°29' W 000°29'418.3
2018-Jun-15 02:30N 36°29' W 000°34'918.7
2018-Jun-15 02:00N 36°28' W 000°46'919.0
2018-Jun-15 01:30N 36°26' W 000°57'1019.1
2018-Jun-15 01:00N 36°25' W 001°09'1019.3
2018-Jun-15 00:30N 36°23' W 001°21'1019.4
2018-Jun-15 00:00N 36°22' W 001°33'17819.6
2018-Jun-14 14:55N 35°60' W 005°11'921.3
2018-Jun-14 14:30N 35°59' W 005°22'9819.1
2018-Jun-14 09:22N 36°05' W 007°23'1316.9
2018-Jun-14 08:36N 36°08' W 007°39'313.8
2018-Jun-14 08:24N 36°09' W 007°42'2 5.5
2018-Jun-14 08:00N 36°09' W 007°45'5 9.6
2018-Jun-14 07:30N 36°10' W 007°51'917.5
2018-Jun-14 07:00N 36°13' W 008°01'1018.7
2018-Jun-14 06:29N 36°15' W 008°13'1118.5
2018-Jun-14 05:54N 36°20' W 008°25'1018.6
2018-Jun-14 05:22N 36°23' W 008°37'1018.2
2018-Jun-14 04:49N 36°26' W 008°48'1318.1
2018-Jun-14 04:06N 36°30' W 009°04'418.2
2018-Jun-14 03:52N 36°31' W 009°09'718.1
2018-Jun-14 03:27N 36°34' W 009°17'2318.1
2018-Jun-14 02:10N 36°53' W 009°34'418.9
2018-Jun-14 01:56N 36°57' W 009°35'1319.1
2018-Jun-14 01:15N 37°10' W 009°38'519.1
2018-Jun-14 00:58N 37°15' W 009°40'918.8
2018-Jun-14 00:30N 37°24' W 009°42'1218.6
2018-Jun-13 23:53N 37°35' W 009°46'918.6
2018-Jun-13 23:24N 37°44' W 009°49'818.9
2018-Jun-13 23:00N 37°51' W 009°51'918.9
2018-Jun-13 22:30N 38°00' W 009°54'918.9
2018-Jun-13 22:01N 38°09' W 009°56'918.8
2018-Jun-13 21:31N 38°18' W 009°59'1019.1
2018-Jun-13 21:01N 38°28' W 010°02'1018.8
2018-Jun-13 20:30N 38°37' W 010°05'919.1
2018-Jun-13 20:01N 38°46' W 010°06'1019.1
2018-Jun-13 19:30N 38°56' W 010°06'1019.4
2018-Jun-13 19:00N 39°06' W 010°05'1019.3
2018-Jun-13 18:31N 39°15' W 010°05'60518.3
2018-Jun-12 09:24N 48°51' W 005°47'1116.1
2018-Jun-12 08:44N 48°57' W 005°33'816.6
2018-Jun-12 08:14N 49°01' W 005°22'416.6
2018-Jun-12 07:58N 49°04' W 005°17'816.5
2018-Jun-12 07:30N 49°08' W 005°06'1119.0
2018-Jun-12 06:56N 49°13' W 004°52'4718.0
2018-Jun-12 04:18N 49°39' W 003°51'517.0
2018-Jun-12 03:59N 49°42' W 003°44'817.0
2018-Jun-12 03:31N 49°46' W 003°34'917.5
2018-Jun-12 03:00N 49°51' W 003°22'918.2
2018-Jun-12 02:31N 49°55' W 003°10'918.5
2018-Jun-12 02:01N 49°59' W 002°57'1019.3
2018-Jun-12 01:31N 50°01' W 002°42'1020.1
2018-Jun-12 01:01N 50°05' W 002°28'1120.8
2018-Jun-12 00:29N 50°10' W 002°12'1021.1
2018-Jun-12 00:00N 50°14' W 001°58'1021.0
2018-Jun-11 23:30N 50°19' W 001°44'1020.4
2018-Jun-11 23:00N 50°24' W 001°30'1020.5
2018-Jun-11 22:30N 50°28' W 001°15'1019.5
2018-Jun-11 22:00N 50°33' W 001°02'714.9
2018-Jun-11 21:30N 50°40' W 000°58'5 9.5
2018-Jun-11 21:00N 50°44' W 001°03'713.5
2018-Jun-11 20:30N 50°46' W 001°14'5 9.1
2018-Jun-11 20:00N 50°49' W 001°18'5 9.4
2018-Jun-11 19:31N 50°53' W 001°24'1 1.1
2018-Jun-11 18:58N 50°53' W 001°24'0 0.0
2018-Jun-11 18:22N 50°53' W 001°24'0 0.0
2018-Jun-11 17:58N 50°53' W 001°24'0 0.0
2018-Jun-11 17:28N 50°53' W 001°24'0 0.0
2018-Jun-11 16:55N 50°53' W 001°24'0 0.0
2018-Jun-11 16:28N 50°53' W 001°24'0 0.0
2018-Jun-11 15:58N 50°53' W 001°24'0 0.0
2018-Jun-11 15:28N 50°53' W 001°24'0 0.0
2018-Jun-11 14:58N 50°53' W 001°24'0 0.0
2018-Jun-11 14:28N 50°53' W 001°24'0 0.0
2018-Jun-11 13:58N 50°53' W 001°24'0 0.0
2018-Jun-11 13:28N 50°53' W 001°24'0 0.0
2018-Jun-11 12:58N 50°53' W 001°24'0 0.0
2018-Jun-11 12:28N 50°53' W 001°24'0 0.0
2018-Jun-11 11:58N 50°53' W 001°24'0 0.0
2018-Jun-11 11:25N 50°53' W 001°24'0 0.0
2018-Jun-11 10:58N 50°53' W 001°24'0 0.0
2018-Jun-11 10:28N 50°53' W 001°24'0 0.0
2018-Jun-11 10:01N 50°53' W 001°24'0 0.0
2018-Jun-11 09:31N 50°53' W 001°24'0 0.0
2018-Jun-11 09:00N 50°53' W 001°24'0 0.0
2018-Jun-11 08:30N 50°53' W 001°24'0 0.0
2018-Jun-11 08:00N 50°53' W 001°24'0 0.0
2018-Jun-11 07:30N 50°53' W 001°24'0 0.0
2018-Jun-11 07:00N 50°53' W 001°24'0 0.0
2018-Jun-11 06:30N 50°53' W 001°24'0 0.0
2018-Jun-11 06:00N 50°53' W 001°24'0 0.0
2018-Jun-11 05:30N 50°53' W 001°24'0 0.0
2018-Jun-11 05:00N 50°53' W 001°24'0 0.0
2018-Jun-11 04:30N 50°53' W 001°24'0 0.0
2018-Jun-11 04:00N 50°53' W 001°24'0 0.0
2018-Jun-11 03:30N 50°53' W 001°24'0 0.0
2018-Jun-11 03:00N 50°53' W 001°24'0 0.0
2018-Jun-11 02:30N 50°53' W 001°24'0 0.0
2018-Jun-11 02:00N 50°53' W 001°24'0 0.0
2018-Jun-11 01:30N 50°53' W 001°24'0 0.0
2018-Jun-11 00:57N 50°53' W 001°24'0 0.0
2018-Jun-11 00:30N 50°53' W 001°24'0 0.0
2018-Jun-11 00:00N 50°53' W 001°24'0 0.0
2018-Jun-10 23:30N 50°53' W 001°24'0 0.0
2018-Jun-10 23:00N 50°53' W 001°24'0 0.0
2018-Jun-10 22:30N 50°53' W 001°24'0 0.0
2018-Jun-10 21:57N 50°53' W 001°24'0 0.0
2018-Jun-10 21:30N 50°53' W 001°24'0 0.1
2018-Jun-10 21:00N 50°53' W 001°24'3 6.4
2018-Jun-10 20:30N 50°51' W 001°20'4 8.7
2018-Jun-10 20:00N 50°47' W 001°19'714.4
2018-Jun-10 19:30N 50°45' W 001°07'714.0
2018-Jun-10 19:00N 50°42' W 000°58'510.9
2018-Jun-10 18:30N 50°36' W 000°56'612.8
2018-Jun-10 18:00N 50°31' W 000°50'1 2.8
2018-Jun-10 17:30N 50°30' W 000°49'1 1.7
2018-Jun-10 17:00N 50°30' W 000°50'1 2.0
2018-Jun-10 16:30N 50°29' W 000°52'1 1.9
2018-Jun-10 16:00N 50°29' W 000°53'1 1.6
2018-Jun-10 15:30N 50°29' W 000°54'1 1.0
2018-Jun-10 15:00N 50°29' W 000°55'0 0.4
2018-Jun-10 14:00N 50°29' W 000°55'4 7.0
2018-Jun-10 13:30N 50°30' W 000°50'4 8.5
2018-Jun-10 13:00N 50°32' W 000°44'510.5
2018-Jun-10 12:30N 50°33' W 000°36'713.7
2018-Jun-10 12:00N 50°33' W 000°25'815.6
2018-Jun-10 11:29N 50°33' W 000°12'919.0
2018-Jun-10 11:00N 50°33' E 000°02'1019.3
2018-Jun-10 10:30N 50°34' E 000°17'919.0
2018-Jun-10 10:00N 50°37' E 000°32'918.5
2018-Jun-10 09:30N 50°42' E 000°44'917.9
2018-Jun-10 09:00N 50°47' E 000°55'1517.2
2018-Jun-10 08:09N 50°57' E 001°13'316.6
2018-Jun-10 07:59N 50°59' E 001°16'816.7
2018-Jun-10 07:30N 51°03' E 001°27'917.6
2018-Jun-10 07:00N 51°09' E 001°37'918.2
2018-Jun-10 06:30N 51°16' E 001°47'1019.3
2018-Jun-10 06:00N 51°23' E 001°57'917.4
2018-Jun-10 05:31N 51°22' E 002°11'918.2
2018-Jun-10 05:00N 51°22' E 002°25'816.9
2018-Jun-10 04:30N 51°22' E 002°39'713.5
2018-Jun-10 04:00N 51°22' E 002°50'917.1
2018-Jun-10 03:30N 51°24' E 003°03'918.1
2018-Jun-10 03:01N 51°24' E 003°18'816.8
2018-Jun-10 02:31N 51°25' E 003°31'510.8
2018-Jun-10 02:00N 51°27' E 003°39'714.7
2018-Jun-10 01:30N 51°21' E 003°47'714.7
2018-Jun-10 01:00N 51°25' E 003°58'5 9.6
2018-Jun-10 00:31N 51°22' E 004°04'611.0
2018-Jun-10 00:00N 51°23' E 004°13'5 9.6
2018-Jun-09 23:30N 51°19' E 004°16'2 4.4
2018-Jun-09 23:00N 51°17' E 004°15'0 0.4
2018-Jun-09 22:30N 51°17' E 004°15'1 1.9
2018-Jun-09 21:59N 51°16' E 004°13'0 0.0
2018-Jun-09 21:29N 51°16' E 004°13'0 0.0
2018-Jun-09 20:59N 51°16' E 004°13'0 0.0
2018-Jun-09 20:29N 51°16' E 004°13'0 0.0
2018-Jun-09 19:59N 51°16' E 004°13'0 0.0
2018-Jun-09 19:29N 51°16' E 004°13'0 0.0
2018-Jun-09 18:59N 51°16' E 004°13'0 0.0
2018-Jun-09 18:29N 51°16' E 004°13'0 0.0
2018-Jun-09 17:59N 51°16' E 004°13'0 0.0
2018-Jun-09 17:29N 51°16' E 004°13'0 0.0
2018-Jun-09 16:59N 51°16' E 004°13'0 0.0
2018-Jun-09 16:29N 51°16' E 004°13'0 0.0
2018-Jun-09 15:59N 51°16' E 004°13'0 0.0
2018-Jun-09 14:59N 51°16' E 004°13'0 0.0
2018-Jun-09 14:26N 51°16' E 004°13'0 0.0
2018-Jun-09 13:59N 51°16' E 004°13'0 0.0
2018-Jun-09 13:29N 51°16' E 004°13'0 0.0
2018-Jun-09 12:59N 51°16' E 004°13'0 0.0
2018-Jun-09 12:29N 51°16' E 004°13'0 0.0
2018-Jun-09 11:59N 51°16' E 004°13'0 0.0
2018-Jun-09 11:29N 51°16' E 004°13'0 0.0
2018-Jun-09 10:59N 51°16' E 004°13'0 0.0
2018-Jun-09 10:29N 51°16' E 004°13'0 0.0
2018-Jun-09 09:56N 51°16' E 004°13'0 0.0
2018-Jun-09 09:29N 51°16' E 004°13'0 0.0
2018-Jun-09 08:58N 51°16' E 004°13'0 0.0
2018-Jun-09 08:28N 51°16' E 004°13'0 0.0
2018-Jun-09 07:58N 51°16' E 004°13'0 0.0
2018-Jun-09 07:28N 51°16' E 004°13'0 0.0
2018-Jun-09 06:58N 51°16' E 004°13'0 0.0
2018-Jun-09 06:28N 51°16' E 004°13'0 0.0
2018-Jun-09 05:58N 51°16' E 004°13'0 0.0
2018-Jun-09 05:28N 51°16' E 004°13'0 0.0
2018-Jun-09 04:58N 51°16' E 004°13'0 0.0
2018-Jun-09 04:28N 51°16' E 004°13'0 0.0
2018-Jun-09 03:58N 51°16' E 004°13'0 0.0
2018-Jun-09 03:28N 51°16' E 004°13'0 0.0
2018-Jun-09 02:55N 51°16' E 004°13'0 0.0
2018-Jun-09 02:28N 51°16' E 004°13'0 0.0
2018-Jun-09 01:58N 51°16' E 004°13'0 0.0
2018-Jun-09 01:28N 51°16' E 004°13'0 0.0
2018-Jun-09 00:58N 51°16' E 004°13'0 0.0
2018-Jun-09 00:28N 51°16' E 004°13'0 0.0
2018-Jun-08 23:58N 51°16' E 004°13'0 0.0
2018-Jun-08 23:28N 51°16' E 004°13'0 0.0
2018-Jun-08 22:58N 51°16' E 004°13'0 0.0
2018-Jun-08 22:28N 51°16' E 004°13'0 0.0
2018-Jun-08 21:58N 51°16' E 004°13'0 0.0
2018-Jun-08 21:28N 51°16' E 004°13'0 0.0
2018-Jun-08 20:58N 51°16' E 004°13'0 0.0
2018-Jun-08 20:28N 51°16' E 004°13'0 0.0
2018-Jun-08 19:58N 51°16' E 004°13'0 0.0
2018-Jun-08 19:28N 51°16' E 004°13'0 0.0
2018-Jun-08 18:58N 51°16' E 004°13'0 0.0
2018-Jun-08 18:28N 51°16' E 004°13'0 0.0
2018-Jun-08 17:58N 51°16' E 004°13'0 0.0
2018-Jun-08 17:28N 51°16' E 004°13'0 0.0
2018-Jun-08 16:58N 51°16' E 004°13'0 0.0
2018-Jun-08 16:28N 51°16' E 004°13'0 0.0
2018-Jun-08 15:58N 51°16' E 004°13'0 0.0
2018-Jun-08 15:28N 51°16' E 004°13'0 0.0
2018-Jun-08 14:58N 51°16' E 004°13'0 0.0
2018-Jun-08 14:28N 51°16' E 004°13'0 0.0
2018-Jun-08 13:58N 51°16' E 004°13'0 0.0
2018-Jun-08 13:28N 51°16' E 004°13'0 0.0
2018-Jun-08 12:58N 51°16' E 004°13'0 0.0
2018-Jun-08 12:28N 51°16' E 004°13'0 0.0
2018-Jun-08 11:58N 51°16' E 004°13'0 0.0
2018-Jun-08 11:25N 51°16' E 004°13'0 0.0
2018-Jun-08 10:58N 51°16' E 004°13'0 0.0
2018-Jun-08 10:28N 51°16' E 004°13'0 0.0
2018-Jun-08 09:58N 51°16' E 004°13'0 0.0
2018-Jun-08 09:28N 51°16' E 004°13'0 0.0
2018-Jun-08 08:58N 51°16' E 004°13'0 0.0
2018-Jun-08 08:28N 51°16' E 004°13'0 0.0
2018-Jun-08 07:58N 51°16' E 004°13'0 0.0
2018-Jun-08 07:28N 51°16' E 004°13'0 0.0
2018-Jun-08 06:58N 51°16' E 004°13'0 0.0
2018-Jun-08 06:28N 51°16' E 004°13'0 0.0
2018-Jun-08 05:58N 51°16' E 004°13'0 0.0
2018-Jun-08 05:28N 51°16' E 004°13'0 0.0
2018-Jun-08 04:58N 51°16' E 004°13'0 0.0
2018-Jun-08 04:28N 51°16' E 004°13'0 0.0
2018-Jun-08 04:01N 51°16' E 004°13'0 0.0
2018-Jun-08 03:31N 51°16' E 004°13'0 0.0
2018-Jun-08 03:00N 51°16' E 004°13'0 0.0
2018-Jun-08 02:30N 51°16' E 004°13'0 0.0
2018-Jun-08 02:00N 51°16' E 004°13'0 0.0
2018-Jun-08 01:30N 51°16' E 004°13'0 0.0
2018-Jun-08 01:00N 51°16' E 004°13'0 0.0
2018-Jun-08 00:30N 51°16' E 004°13'0 0.0
2018-Jun-08 00:00N 51°16' E 004°13'0 0.0
2018-Jun-07 23:30N 51°16' E 004°13'0 0.0
2018-Jun-07 23:00N 51°16' E 004°13'0 0.0
2018-Jun-07 22:30N 51°16' E 004°13'0 0.0
2018-Jun-07 22:00N 51°16' E 004°13'0 0.0
2018-Jun-07 21:30N 51°16' E 004°13'0 0.0
2018-Jun-07 21:00N 51°16' E 004°13'0 0.0
2018-Jun-07 20:30N 51°16' E 004°13'0 0.0
2018-Jun-07 20:00N 51°16' E 004°13'0 0.0
2018-Jun-07 19:30N 51°16' E 004°13'0 0.0
2018-Jun-07 19:00N 51°16' E 004°13'0 1.0
2018-Jun-07 18:31N 51°16' E 004°14'1 1.2
2018-Jun-07 18:00N 51°17' E 004°15'0 0.6
2018-Jun-07 17:30N 51°17' E 004°15'2 5.0
2018-Jun-07 17:01N 51°19' E 004°16'510.4
2018-Jun-07 16:30N 51°24' E 004°12'611.8
2018-Jun-07 16:00N 51°23' E 004°03'4 7.3
2018-Jun-07 15:30N 51°24' E 003°57'611.8
2018-Jun-07 15:00N 51°21' E 003°50'611.4
2018-Jun-07 14:30N 51°24' E 003°43'4 8.9
2018-Jun-07 14:00N 51°26' E 003°36'5 9.1
2018-Jun-07 13:30N 51°25' E 003°29'611.3
2018-Jun-07 13:00N 51°24' E 003°20'510.6
2018-Jun-07 12:30N 51°24' E 003°12'610.9
2018-Jun-07 12:00N 51°24' E 003°03'5 9.9
2018-Jun-07 11:30N 51°29' E 003°02'815.1
2018-Jun-07 11:00N 51°35' E 003°10'713.3
2018-Jun-07 10:30N 51°41' E 003°14'611.5
2018-Jun-07 09:58N 51°47' E 003°16'815.5
2018-Jun-07 09:29N 51°55' E 003°16'714.9
2018-Jun-07 09:00N 52°01' E 003°20'714.8
2018-Jun-07 08:30N 52°09' E 003°22'815.2
2018-Jun-07 08:00N 52°16' E 003°24'815.3
2018-Jun-07 07:30N 52°24' E 003°27'815.2
2018-Jun-07 07:00N 52°31' E 003°29'714.8
2018-Jun-07 06:30N 52°38' E 003°34'815.4
2018-Jun-07 06:00N 52°45' E 003°40'815.8
2018-Jun-07 05:30N 52°51' E 003°48'815.8
2018-Jun-07 05:00N 52°56' E 003°57'816.2
2018-Jun-07 04:30N 53°02' E 004°08'816.3
2018-Jun-07 04:00N 53°07' E 004°18'815.8
2018-Jun-07 03:30N 53°13' E 004°27'815.9
2018-Jun-07 03:00N 53°20' E 004°31'815.6
2018-Jun-07 02:30N 53°27' E 004°36'714.9
2018-Jun-07 02:00N 53°31' E 004°47'714.9
2018-Jun-07 01:30N 53°33' E 004°59'714.6
2018-Jun-07 01:01N 53°36' E 005°11'714.2
2018-Jun-07 00:30N 53°38' E 005°22'714.1
2018-Jun-07 00:01N 53°40' E 005°34'814.3
2018-Jun-06 23:27N 53°43' E 005°46'7214.7
2018-Jun-06 18:34N 53°53' E 007°47'215.1
2018-Jun-06 18:28N 53°52' E 007°49'613.5
2018-Jun-06 18:00N 53°51' E 008°00'815.6
2018-Jun-06 17:30N 53°46' E 008°10'815.2
2018-Jun-06 16:59N 53°42' E 008°21'613.5
2018-Jun-06 16:30N 53°37' E 008°29'4 7.9
2018-Jun-06 16:00N 53°34' E 008°33'0 0.6
2018-Jun-06 15:30N 53°34' E 008°33'0 0.0
2018-Jun-06 15:00N 53°34' E 008°33'1 1.0
2018-Jun-06 14:30N 53°35' E 008°33'0 0.0
2018-Jun-06 14:00N 53°35' E 008°33'0 0.0
2018-Jun-06 13:30N 53°35' E 008°33'0 0.0
2018-Jun-06 13:00N 53°35' E 008°33'0 0.0
2018-Jun-06 12:30N 53°35' E 008°33'0 0.0
2018-Jun-06 12:00N 53°35' E 008°33'0 0.0
2018-Jun-06 11:30N 53°35' E 008°33'0 0.0
2018-Jun-06 10:57N 53°35' E 008°33'0 0.0
2018-Jun-06 10:30N 53°35' E 008°33'0 0.0
2018-Jun-06 10:00N 53°35' E 008°33'0 0.0
2018-Jun-06 09:30N 53°35' E 008°33'0 0.0
2018-Jun-06 09:00N 53°35' E 008°33'0 0.0
2018-Jun-06 08:30N 53°35' E 008°33'0 0.0
2018-Jun-06 07:59N 53°35' E 008°33'0 0.0
2018-Jun-06 07:29N 53°35' E 008°33'0 0.0
2018-Jun-06 06:59N 53°35' E 008°33'0 0.0
2018-Jun-06 06:29N 53°35' E 008°33'0 0.0
2018-Jun-06 05:59N 53°35' E 008°33'0 0.0
2018-Jun-06 05:29N 53°35' E 008°33'0 0.0
2018-Jun-06 04:59N 53°35' E 008°33'0 0.0
2018-Jun-06 04:29N 53°35' E 008°33'0 0.0
2018-Jun-06 03:59N 53°35' E 008°33'0 0.0
2018-Jun-06 03:29N 53°35' E 008°33'0 0.0
2018-Jun-06 02:59N 53°35' E 008°33'0 0.0
2018-Jun-06 02:29N 53°35' E 008°33'0 0.0
2018-Jun-06 01:59N 53°35' E 008°33'0 0.0
2018-Jun-06 01:29N 53°35' E 008°33'0 0.0
2018-Jun-06 00:59N 53°35' E 008°33'0 0.0
2018-Jun-06 00:29N 53°35' E 008°33'0 0.0
2018-Jun-05 23:59N 53°35' E 008°33'0 0.0
2018-Jun-05 23:29N 53°35' E 008°33'0 0.0
2018-Jun-05 22:59N 53°35' E 008°33'0 0.0
2018-Jun-05 22:29N 53°35' E 008°33'0 0.0
2018-Jun-05 21:59N 53°35' E 008°33'0 0.0
2018-Jun-05 21:29N 53°35' E 008°33'0 0.0
2018-Jun-05 20:59N 53°35' E 008°33'0 0.0
2018-Jun-05 20:29N 53°35' E 008°33'0 0.0
2018-Jun-05 19:59N 53°35' E 008°33'0 0.0
2018-Jun-05 19:29N 53°35' E 008°33'0 0.0
2018-Jun-05 18:59N 53°35' E 008°33'0 0.0
2018-Jun-05 18:29N 53°35' E 008°33'0 0.0
2018-Jun-05 17:59N 53°35' E 008°33'0 0.0
2018-Jun-05 17:29N 53°35' E 008°33'0 0.0
2018-Jun-05 16:59N 53°35' E 008°33'0 0.5
2018-Jun-05 16:30N 53°34' E 008°33'0 0.6
2018-Jun-05 16:00N 53°34' E 008°33'  
Track history (hours):
 
Tides and Currents Weather Stations Pressure Air Temp Water Temp Dewpoint Dewpoint Depression Visibility Wind Speed Wind Dir Waves Ship Positions

Morning Calm

Last reported at 2018-Jun-15 15:30 UTC. Time now 2018-Jun-19 18:25 UTC.
Position N 37°08' E 004°24'.

Length 199 m; draft 9.1 m.

Type: Cargo ship. MMSI: 311696980.

Date/timePositionNaut miles runAvg speedWind from/ knotsBaromVisibWave heightAir tempDewpointWater temp
2018-Jun-15 15:30N 37°08' E 004°24'918.4
2018-Jun-15 15:00N 37°08' E 004°13'918.4
2018-Jun-15 14:30N 37°07' E 004°01'918.5
2018-Jun-15 14:00N 37°06' E 003°49'918.6
2018-Jun-15 13:30N 37°05' E 003°38'918.1
2018-Jun-15 13:00N 37°03' E 003°27'917.8
2018-Jun-15 12:30N 37°02' E 003°16'917.8
2018-Jun-15 11:58N 36°59' E 003°04'817.9
2018-Jun-15 11:30N 36°58' E 002°54'918.1
2018-Jun-15 11:00N 36°56' E 002°43'918.3
2018-Jun-15 10:30N 36°54' E 002°31'918.6
2018-Jun-15 10:00N 36°53' E 002°20'1018.9
2018-Jun-15 09:30N 36°51' E 002°08'1019.1
2018-Jun-15 08:59N 36°49' E 001°57'1019.7
2018-Jun-15 08:29N 36°47' E 001°44'919.7
2018-Jun-15 08:00N 36°46' E 001°33'1019.5
2018-Jun-15 07:30N 36°45' E 001°21'1119.4
2018-Jun-15 06:58N 36°43' E 001°08'919.2
2018-Jun-15 06:30N 36°42' E 000°57'919.0
2018-Jun-15 06:00N 36°40' E 000°45'918.7
2018-Jun-15 05:30N 36°38' E 000°34'918.6
2018-Jun-15 05:00N 36°37' E 000°22'918.5
2018-Jun-15 04:30N 36°35' E 000°11'918.7
2018-Jun-15 04:00N 36°34' W 000°01'1318.6
2018-Jun-15 03:18N 36°31' W 000°17'1018.2
2018-Jun-15 02:44N 36°29' W 000°29'418.3
2018-Jun-15 02:30N 36°29' W 000°34'918.7
2018-Jun-15 02:00N 36°28' W 000°46'919.0
2018-Jun-15 01:30N 36°26' W 000°57'1019.1
2018-Jun-15 01:00N 36°25' W 001°09'1019.3
2018-Jun-15 00:30N 36°23' W 001°21'1019.4
2018-Jun-15 00:00N 36°22' W 001°33'17819.6
2018-Jun-14 14:55N 35°60' W 005°11'921.3
2018-Jun-14 14:30N 35°59' W 005°22'9819.1
2018-Jun-14 09:22N 36°05' W 007°23'1316.9
2018-Jun-14 08:36N 36°08' W 007°39'313.8
2018-Jun-14 08:24N 36°09' W 007°42'2 5.5
2018-Jun-14 08:00N 36°09' W 007°45'5 9.6
2018-Jun-14 07:30N 36°10' W 007°51'917.5
2018-Jun-14 07:00N 36°13' W 008°01'1018.7
2018-Jun-14 06:29N 36°15' W 008°13'1118.5
2018-Jun-14 05:54N 36°20' W 008°25'1018.6
2018-Jun-14 05:22N 36°23' W 008°37'1018.2
2018-Jun-14 04:49N 36°26' W 008°48'1318.1
2018-Jun-14 04:06N 36°30' W 009°04'418.2
2018-Jun-14 03:52N 36°31' W 009°09'718.1
2018-Jun-14 03:27N 36°34' W 009°17'2318.1
2018-Jun-14 02:10N 36°53' W 009°34'418.9
2018-Jun-14 01:56N 36°57' W 009°35'1319.1
2018-Jun-14 01:15N 37°10' W 009°38'519.1
2018-Jun-14 00:58N 37°15' W 009°40'918.8
2018-Jun-14 00:30N 37°24' W 009°42'1218.6
2018-Jun-13 23:53N 37°35' W 009°46'918.6
2018-Jun-13 23:24N 37°44' W 009°49'818.9
2018-Jun-13 23:00N 37°51' W 009°51'918.9
2018-Jun-13 22:30N 38°00' W 009°54'918.9
2018-Jun-13 22:01N 38°09' W 009°56'918.8
2018-Jun-13 21:31N 38°18' W 009°59'1019.1
2018-Jun-13 21:01N 38°28' W 010°02'1018.8
2018-Jun-13 20:30N 38°37' W 010°05'919.1
2018-Jun-13 20:01N 38°46' W 010°06'1019.1
2018-Jun-13 19:30N 38°56' W 010°06'1019.4
2018-Jun-13 19:00N 39°06' W 010°05'1019.3
2018-Jun-13 18:31N 39°15' W 010°05'60518.3
2018-Jun-12 09:24N 48°51' W 005°47'1116.1
2018-Jun-12 08:44N 48°57' W 005°33'816.6
2018-Jun-12 08:14N 49°01' W 005°22'416.6
2018-Jun-12 07:58N 49°04' W 005°17'816.5
2018-Jun-12 07:30N 49°08' W 005°06'1119.0
2018-Jun-12 06:56N 49°13' W 004°52'4718.0
2018-Jun-12 04:18N 49°39' W 003°51'517.0
2018-Jun-12 03:59N 49°42' W 003°44'817.0
2018-Jun-12 03:31N 49°46' W 003°34'917.5
2018-Jun-12 03:00N 49°51' W 003°22'918.2
2018-Jun-12 02:31N 49°55' W 003°10'918.5
2018-Jun-12 02:01N 49°59' W 002°57'1019.3
2018-Jun-12 01:31N 50°01' W 002°42'1020.1
2018-Jun-12 01:01N 50°05' W 002°28'1120.8
2018-Jun-12 00:29N 50°10' W 002°12'1021.1
2018-Jun-12 00:00N 50°14' W 001°58'1021.0
2018-Jun-11 23:30N 50°19' W 001°44'1020.4
2018-Jun-11 23:00N 50°24' W 001°30'1020.5
2018-Jun-11 22:30N 50°28' W 001°15'1019.5
2018-Jun-11 22:00N 50°33' W 001°02'714.9
2018-Jun-11 21:30N 50°40' W 000°58'5 9.5
2018-Jun-11 21:00N 50°44' W 001°03'713.5
2018-Jun-11 20:30N 50°46' W 001°14'5 9.1
2018-Jun-11 20:00N 50°49' W 001°18'5 9.4
2018-Jun-11 19:31N 50°53' W 001°24'1 1.1
2018-Jun-11 18:58N 50°53' W 001°24'0 0.0
2018-Jun-11 18:22N 50°53' W 001°24'0 0.0
2018-Jun-11 17:58N 50°53' W 001°24'0 0.0
2018-Jun-11 17:28N 50°53' W 001°24'0 0.0
2018-Jun-11 16:55N 50°53' W 001°24'0 0.0
2018-Jun-11 16:28N 50°53' W 001°24'0 0.0
2018-Jun-11 15:58N 50°53' W 001°24'0 0.0
2018-Jun-11 15:28N 50°53' W 001°24'0 0.0
2018-Jun-11 14:58N 50°53' W 001°24'0 0.0
2018-Jun-11 14:28N 50°53' W 001°24'0 0.0
2018-Jun-11 13:58N 50°53' W 001°24'0 0.0
2018-Jun-11 13:28N 50°53' W 001°24'0 0.0
2018-Jun-11 12:58N 50°53' W 001°24'0 0.0
2018-Jun-11 12:28N 50°53' W 001°24'0 0.0
2018-Jun-11 11:58N 50°53' W 001°24'0 0.0
2018-Jun-11 11:25N 50°53' W 001°24'0 0.0
2018-Jun-11 10:58N 50°53' W 001°24'0 0.0
2018-Jun-11 10:28N 50°53' W 001°24'0 0.0
2018-Jun-11 10:01N 50°53' W 001°24'0 0.0
2018-Jun-11 09:31N 50°53' W 001°24'0 0.0
2018-Jun-11 09:00N 50°53' W 001°24'0 0.0
2018-Jun-11 08:30N 50°53' W 001°24'0 0.0
2018-Jun-11 08:00N 50°53' W 001°24'0 0.0
2018-Jun-11 07:30N 50°53' W 001°24'0 0.0
2018-Jun-11 07:00N 50°53' W 001°24'0 0.0
2018-Jun-11 06:30N 50°53' W 001°24'0 0.0
2018-Jun-11 06:00N 50°53' W 001°24'0 0.0
2018-Jun-11 05:30N 50°53' W 001°24'0 0.0
2018-Jun-11 05:00N 50°53' W 001°24'0 0.0
2018-Jun-11 04:30N 50°53' W 001°24'0 0.0
2018-Jun-11 04:00N 50°53' W 001°24'0 0.0
2018-Jun-11 03:30N 50°53' W 001°24'0 0.0
2018-Jun-11 03:00N 50°53' W 001°24'0 0.0
2018-Jun-11 02:30N 50°53' W 001°24'0 0.0
2018-Jun-11 02:00N 50°53' W 001°24'0 0.0
2018-Jun-11 01:30N 50°53' W 001°24'0 0.0
2018-Jun-11 00:57N 50°53' W 001°24'0 0.0
2018-Jun-11 00:30N 50°53' W 001°24'0 0.0
2018-Jun-11 00:00N 50°53' W 001°24'0 0.0
2018-Jun-10 23:30N 50°53' W 001°24'0 0.0
2018-Jun-10 23:00N 50°53' W 001°24'0 0.0
2018-Jun-10 22:30N 50°53' W 001°24'0 0.0
2018-Jun-10 21:57N 50°53' W 001°24'0 0.0
2018-Jun-10 21:30N 50°53' W 001°24'0 0.1
2018-Jun-10 21:00N 50°53' W 001°24'3 6.4
2018-Jun-10 20:30N 50°51' W 001°20'4 8.7
2018-Jun-10 20:00N 50°47' W 001°19'714.4
2018-Jun-10 19:30N 50°45' W 001°07'714.0
2018-Jun-10 19:00N 50°42' W 000°58'510.9
2018-Jun-10 18:30N 50°36' W 000°56'612.8
2018-Jun-10 18:00N 50°31' W 000°50'1 2.8
2018-Jun-10 17:30N 50°30' W 000°49'1 1.7
2018-Jun-10 17:00N 50°30' W 000°50'1 2.0
2018-Jun-10 16:30N 50°29' W 000°52'1 1.9
2018-Jun-10 16:00N 50°29' W 000°53'1 1.6
2018-Jun-10 15:30N 50°29' W 000°54'1 1.0
2018-Jun-10 15:00N 50°29' W 000°55'0 0.4
2018-Jun-10 14:00N 50°29' W 000°55'4 7.0
2018-Jun-10 13:30N 50°30' W 000°50'4 8.5
2018-Jun-10 13:00N 50°32' W 000°44'510.5
2018-Jun-10 12:30N 50°33' W 000°36'713.7
2018-Jun-10 12:00N 50°33' W 000°25'815.6
2018-Jun-10 11:29N 50°33' W 000°12'919.0
2018-Jun-10 11:00N 50°33' E 000°02'1019.3
2018-Jun-10 10:30N 50°34' E 000°17'919.0
2018-Jun-10 10:00N 50°37' E 000°32'918.5
2018-Jun-10 09:30N 50°42' E 000°44'917.9
2018-Jun-10 09:00N 50°47' E 000°55'1517.2
2018-Jun-10 08:09N 50°57' E 001°13'316.6
2018-Jun-10 07:59N 50°59' E 001°16'816.7
2018-Jun-10 07:30N 51°03' E 001°27'917.6
2018-Jun-10 07:00N 51°09' E 001°37'918.2
2018-Jun-10 06:30N 51°16' E 001°47'1019.3
2018-Jun-10 06:00N 51°23' E 001°57'917.4
2018-Jun-10 05:31N 51°22' E 002°11'918.2
2018-Jun-10 05:00N 51°22' E 002°25'816.9
2018-Jun-10 04:30N 51°22' E 002°39'713.5
2018-Jun-10 04:00N 51°22' E 002°50'917.1
2018-Jun-10 03:30N 51°24' E 003°03'918.1
2018-Jun-10 03:01N 51°24' E 003°18'816.8
2018-Jun-10 02:31N 51°25' E 003°31'510.8
2018-Jun-10 02:00N 51°27' E 003°39'714.7
2018-Jun-10 01:30N 51°21' E 003°47'714.7
2018-Jun-10 01:00N 51°25' E 003°58'5 9.6
2018-Jun-10 00:31N 51°22' E 004°04'611.0
2018-Jun-10 00:00N 51°23' E 004°13'5 9.6
2018-Jun-09 23:30N 51°19' E 004°16'2 4.4
2018-Jun-09 23:00N 51°17' E 004°15'0 0.4
2018-Jun-09 22:30N 51°17' E 004°15'1 1.9
2018-Jun-09 21:59N 51°16' E 004°13'0 0.0
2018-Jun-09 21:29N 51°16' E 004°13'0 0.0
2018-Jun-09 20:59N 51°16' E 004°13'0 0.0
2018-Jun-09 20:29N 51°16' E 004°13'0 0.0
2018-Jun-09 19:59N 51°16' E 004°13'0 0.0
2018-Jun-09 19:29N 51°16' E 004°13'0 0.0
2018-Jun-09 18:59N 51°16' E 004°13'0 0.0
2018-Jun-09 18:29N 51°16' E 004°13'0 0.0
2018-Jun-09 17:59N 51°16' E 004°13'0 0.0
2018-Jun-09 17:29N 51°16' E 004°13'0 0.0
2018-Jun-09 16:59N 51°16' E 004°13'0 0.0
2018-Jun-09 16:29N 51°16' E 004°13'0 0.0
2018-Jun-09 15:59N 51°16' E 004°13'0 0.0
2018-Jun-09 14:59N 51°16' E 004°13'0 0.0
2018-Jun-09 14:26N 51°16' E 004°13'0 0.0
2018-Jun-09 13:59N 51°16' E 004°13'0 0.0
2018-Jun-09 13:29N 51°16' E 004°13'0 0.0
2018-Jun-09 12:59N 51°16' E 004°13'0 0.0
2018-Jun-09 12:29N 51°16' E 004°13'0 0.0
2018-Jun-09 11:59N 51°16' E 004°13'0 0.0
2018-Jun-09 11:29N 51°16' E 004°13'0 0.0
2018-Jun-09 10:59N 51°16' E 004°13'0 0.0
2018-Jun-09 10:29N 51°16' E 004°13'0 0.0
2018-Jun-09 09:56N 51°16' E 004°13'0 0.0
2018-Jun-09 09:29N 51°16' E 004°13'0 0.0
2018-Jun-09 08:58N 51°16' E 004°13'0 0.0
2018-Jun-09 08:28N 51°16' E 004°13'0 0.0
2018-Jun-09 07:58N 51°16' E 004°13'0 0.0
2018-Jun-09 07:28N 51°16' E 004°13'0 0.0
2018-Jun-09 06:58N 51°16' E 004°13'0 0.0
2018-Jun-09 06:28N 51°16' E 004°13'0 0.0
2018-Jun-09 05:58N 51°16' E 004°13'0 0.0
2018-Jun-09 05:28N 51°16' E 004°13'0 0.0
2018-Jun-09 04:58N 51°16' E 004°13'0 0.0
2018-Jun-09 04:28N 51°16' E 004°13'0 0.0
2018-Jun-09 03:58N 51°16' E 004°13'0 0.0
2018-Jun-09 03:28N 51°16' E 004°13'0 0.0
2018-Jun-09 02:55N 51°16' E 004°13'0 0.0
2018-Jun-09 02:28N 51°16' E 004°13'0 0.0
2018-Jun-09 01:58N 51°16' E 004°13'0 0.0
2018-Jun-09 01:28N 51°16' E 004°13'0 0.0
2018-Jun-09 00:58N 51°16' E 004°13'0 0.0
2018-Jun-09 00:28N 51°16' E 004°13'0 0.0
2018-Jun-08 23:58N 51°16' E 004°13'0 0.0
2018-Jun-08 23:28N 51°16' E 004°13'0 0.0
2018-Jun-08 22:58N 51°16' E 004°13'0 0.0
2018-Jun-08 22:28N 51°16' E 004°13'0 0.0
2018-Jun-08 21:58N 51°16' E 004°13'0 0.0
2018-Jun-08 21:28N 51°16' E 004°13'0 0.0
2018-Jun-08 20:58N 51°16' E 004°13'0 0.0
2018-Jun-08 20:28N 51°16' E 004°13'0 0.0
2018-Jun-08 19:58N 51°16' E 004°13'0 0.0
2018-Jun-08 19:28N 51°16' E 004°13'0 0.0
2018-Jun-08 18:58N 51°16' E 004°13'0 0.0
2018-Jun-08 18:28N 51°16' E 004°13'0 0.0
2018-Jun-08 17:58N 51°16' E 004°13'0 0.0
2018-Jun-08 17:28N 51°16' E 004°13'0 0.0
2018-Jun-08 16:58N 51°16' E 004°13'0 0.0
2018-Jun-08 16:28N 51°16' E 004°13'0 0.0
2018-Jun-08 15:58N 51°16' E 004°13'0 0.0
2018-Jun-08 15:28N 51°16' E 004°13'0 0.0
2018-Jun-08 14:58N 51°16' E 004°13'0 0.0
2018-Jun-08 14:28N 51°16' E 004°13'0 0.0
2018-Jun-08 13:58N 51°16' E 004°13'0 0.0
2018-Jun-08 13:28N 51°16' E 004°13'0 0.0
2018-Jun-08 12:58N 51°16' E 004°13'0 0.0
2018-Jun-08 12:28N 51°16' E 004°13'0 0.0
2018-Jun-08 11:58N 51°16' E 004°13'0 0.0
2018-Jun-08 11:25N 51°16' E 004°13'0 0.0
2018-Jun-08 10:58N 51°16' E 004°13'0 0.0
2018-Jun-08 10:28N 51°16' E 004°13'0 0.0
2018-Jun-08 09:58N 51°16' E 004°13'0 0.0
2018-Jun-08 09:28N 51°16' E 004°13'0 0.0
2018-Jun-08 08:58N 51°16' E 004°13'0 0.0
2018-Jun-08 08:28N 51°16' E 004°13'0 0.0
2018-Jun-08 07:58N 51°16' E 004°13'0 0.0
2018-Jun-08 07:28N 51°16' E 004°13'0 0.0
2018-Jun-08 06:58N 51°16' E 004°13'0 0.0
2018-Jun-08 06:28N 51°16' E 004°13'0 0.0
2018-Jun-08 05:58N 51°16' E 004°13'0 0.0
2018-Jun-08 05:28N 51°16' E 004°13'0 0.0
2018-Jun-08 04:58N 51°16' E 004°13'0 0.0
2018-Jun-08 04:28N 51°16' E 004°13'0 0.0
2018-Jun-08 04:01N 51°16' E 004°13'0 0.0
2018-Jun-08 03:31N 51°16' E 004°13'0 0.0
2018-Jun-08 03:00N 51°16' E 004°13'0 0.0
2018-Jun-08 02:30N 51°16' E 004°13'0 0.0
2018-Jun-08 02:00N 51°16' E 004°13'0 0.0
2018-Jun-08 01:30N 51°16' E 004°13'0 0.0
2018-Jun-08 01:00N 51°16' E 004°13'0 0.0
2018-Jun-08 00:30N 51°16' E 004°13'0 0.0
2018-Jun-08 00:00N 51°16' E 004°13'0 0.0
2018-Jun-07 23:30N 51°16' E 004°13'0 0.0
2018-Jun-07 23:00N 51°16' E 004°13'0 0.0
2018-Jun-07 22:30N 51°16' E 004°13'0 0.0
2018-Jun-07 22:00N 51°16' E 004°13'0 0.0
2018-Jun-07 21:30N 51°16' E 004°13'0 0.0
2018-Jun-07 21:00N 51°16' E 004°13'0 0.0
2018-Jun-07 20:30N 51°16' E 004°13'0 0.0
2018-Jun-07 20:00N 51°16' E 004°13'0 0.0
2018-Jun-07 19:30N 51°16' E 004°13'0 0.0
2018-Jun-07 19:00N 51°16' E 004°13'0 1.0
2018-Jun-07 18:31N 51°16' E 004°14'1 1.2
2018-Jun-07 18:00N 51°17' E 004°15'0 0.6
2018-Jun-07 17:30N 51°17' E 004°15'2 5.0
2018-Jun-07 17:01N 51°19' E 004°16'510.4
2018-Jun-07 16:30N 51°24' E 004°12'611.8
2018-Jun-07 16:00N 51°23' E 004°03'4 7.3
2018-Jun-07 15:30N 51°24' E 003°57'611.8
2018-Jun-07 15:00N 51°21' E 003°50'611.4
2018-Jun-07 14:30N 51°24' E 003°43'4 8.9
2018-Jun-07 14:00N 51°26' E 003°36'5 9.1
2018-Jun-07 13:30N 51°25' E 003°29'611.3
2018-Jun-07 13:00N 51°24' E 003°20'510.6
2018-Jun-07 12:30N 51°24' E 003°12'610.9
2018-Jun-07 12:00N 51°24' E 003°03'5 9.9
2018-Jun-07 11:30N 51°29' E 003°02'815.1
2018-Jun-07 11:00N 51°35' E 003°10'713.3
2018-Jun-07 10:30N 51°41' E 003°14'611.5
2018-Jun-07 09:58N 51°47' E 003°16'815.5
2018-Jun-07 09:29N 51°55' E 003°16'714.9
2018-Jun-07 09:00N 52°01' E 003°20'714.8
2018-Jun-07 08:30N 52°09' E 003°22'815.2
2018-Jun-07 08:00N 52°16' E 003°24'815.3
2018-Jun-07 07:30N 52°24' E 003°27'815.2
2018-Jun-07 07:00N 52°31' E 003°29'714.8
2018-Jun-07 06:30N 52°38' E 003°34'815.4
2018-Jun-07 06:00N 52°45' E 003°40'815.8
2018-Jun-07 05:30N 52°51' E 003°48'815.8
2018-Jun-07 05:00N 52°56' E 003°57'816.2
2018-Jun-07 04:30N 53°02' E 004°08'816.3
2018-Jun-07 04:00N 53°07' E 004°18'815.8
2018-Jun-07 03:30N 53°13' E 004°27'815.9
2018-Jun-07 03:00N 53°20' E 004°31'815.6
2018-Jun-07 02:30N 53°27' E 004°36'714.9
2018-Jun-07 02:00N 53°31' E 004°47'714.9
2018-Jun-07 01:30N 53°33' E 004°59'714.6
2018-Jun-07 01:01N 53°36' E 005°11'714.2
2018-Jun-07 00:30N 53°38' E 005°22'714.1
2018-Jun-07 00:01N 53°40' E 005°34'814.3
2018-Jun-06 23:27N 53°43' E 005°46'7214.7
2018-Jun-06 18:34N 53°53' E 007°47'215.1
2018-Jun-06 18:28N 53°52' E 007°49'613.5
2018-Jun-06 18:00N 53°51' E 008°00'815.6
2018-Jun-06 17:30N 53°46' E 008°10'815.2
2018-Jun-06 16:59N 53°42' E 008°21'613.5
2018-Jun-06 16:30N 53°37' E 008°29'4 7.9
2018-Jun-06 16:00N 53°34' E 008°33'0 0.6
2018-Jun-06 15:30N 53°34' E 008°33'0 0.0
2018-Jun-06 15:00N 53°34' E 008°33'1 1.0
2018-Jun-06 14:30N 53°35' E 008°33'0 0.0
2018-Jun-06 14:00N 53°35' E 008°33'0 0.0
2018-Jun-06 13:30N 53°35' E 008°33'0 0.0
2018-Jun-06 13:00N 53°35' E 008°33'0 0.0
2018-Jun-06 12:30N 53°35' E 008°33'0 0.0
2018-Jun-06 12:00N 53°35' E 008°33'0 0.0
2018-Jun-06 11:30N 53°35' E 008°33'0 0.0
2018-Jun-06 10:57N 53°35' E 008°33'0 0.0
2018-Jun-06 10:30N 53°35' E 008°33'0 0.0
2018-Jun-06 10:00N 53°35' E 008°33'0 0.0
2018-Jun-06 09:30N 53°35' E 008°33'0 0.0
2018-Jun-06 09:00N 53°35' E 008°33'0 0.0
2018-Jun-06 08:30N 53°35' E 008°33'0 0.0
2018-Jun-06 07:59N 53°35' E 008°33'0 0.0
2018-Jun-06 07:29N 53°35' E 008°33'0 0.0
2018-Jun-06 06:59N 53°35' E 008°33'0 0.0
2018-Jun-06 06:29N 53°35' E 008°33'0 0.0
2018-Jun-06 05:59N 53°35' E 008°33'0 0.0
2018-Jun-06 05:29N 53°35' E 008°33'0 0.0
2018-Jun-06 04:59N 53°35' E 008°33'0 0.0
2018-Jun-06 04:29N 53°35' E 008°33'0 0.0
2018-Jun-06 03:59N 53°35' E 008°33'0 0.0
2018-Jun-06 03:29N 53°35' E 008°33'0 0.0
2018-Jun-06 02:59N 53°35' E 008°33'0 0.0
2018-Jun-06 02:29N 53°35' E 008°33'0 0.0
2018-Jun-06 01:59N 53°35' E 008°33'0 0.0
2018-Jun-06 01:29N 53°35' E 008°33'0 0.0
2018-Jun-06 00:59N 53°35' E 008°33'0 0.0
2018-Jun-06 00:29N 53°35' E 008°33'0 0.0
2018-Jun-05 23:59N 53°35' E 008°33'0 0.0
2018-Jun-05 23:29N 53°35' E 008°33'0 0.0
2018-Jun-05 22:59N 53°35' E 008°33'0 0.0
2018-Jun-05 22:29N 53°35' E 008°33'0 0.0
2018-Jun-05 21:59N 53°35' E 008°33'0 0.0
2018-Jun-05 21:29N 53°35' E 008°33'0 0.0
2018-Jun-05 20:59N 53°35' E 008°33'0 0.0
2018-Jun-05 20:29N 53°35' E 008°33'0 0.0
2018-Jun-05 19:59N 53°35' E 008°33'0 0.0
2018-Jun-05 19:29N 53°35' E 008°33'0 0.0
2018-Jun-05 18:59N 53°35' E 008°33'0 0.0
2018-Jun-05 18:29N 53°35' E 008°33'0 0.0
2018-Jun-05 17:59N 53°35' E 008°33'0 0.0
2018-Jun-05 17:29N 53°35' E 008°33'0 0.0
2018-Jun-05 16:59N 53°35' E 008°33'0 0.5
2018-Jun-05 16:30N 53°34' E 008°33'0 0.6
2018-Jun-05 16:00N 53°34' E 008°33'  

Dump ship's entire track history